METAR Data
IDs: Format: Raw Decoded Include TAF

Data at: 2140 UTC 24 Mar 2019

KBMT 242135Z AUTO 17009KT 10SM SCT023 BKN033 OVC040 23/18 A3009 RMK AO2 T02330175
KBMT 242115Z AUTO 17007KT 10SM SCT025 BKN036 OVC050 23/18 A3010 RMK AO2 T02300175
KBMT 242055Z AUTO 17009KT 10SM SCT023 BKN029 OVC038 23/18 A3010 RMK AO2 T02260177
KBMT 242035Z AUTO 19009KT 10SM BKN026 BKN035 OVC042 24/17 A3010 RMK AO2 T02350173
KBMT 242015Z AUTO 17008KT 10SM BKN026 BKN034 OVC050 24/17 A3010 RMK AO2 T02410172
KBMT 241955Z AUTO 17009KT 10SM BKN028 BKN043 OVC050 25/17 A3011 RMK AO2 T02460169
KBMT 241935Z AUTO 17008KT 10SM SCT028 SCT033 OVC048 25/17 A3011 RMK AO2 T02460166
KBMT 241915Z AUTO 19009KT 10SM SCT026 BKN048 OVC050 24/17 A3011 RMK AO2 T02410169
KBMT 241855Z AUTO 18011G15KT 10SM SCT026 SCT042 OVC050 25/17 A3013 RMK AO2 T02530173
KBMT 241835Z AUTO 17008G14KT 10SM SCT026 BKN043 OVC050 24/17 A3014 RMK AO2 T02350169
KBMT 241815Z AUTO 15009G16KT 10SM SCT026 BKN036 OVC050 24/17 A3014 RMK AO2 T02400169
KBMT 241755Z AUTO 17011G15KT 10SM SCT028 BKN040 OVC050 24/16 A3014 RMK AO2 T02380164 10253 20134
KBMT 241735Z AUTO 18011G15KT 10SM SCT028 SCT043 OVC050 25/17 A3015 RMK AO2 T02490166
KBMT 241715Z AUTO 17008KT 10SM SCT026 BKN042 OVC049 24/16 A3015 RMK AO2 T02380164
KBMT 241655Z AUTO 17007G14KT 10SM SCT026 BKN034 OVC042 24/17 A3016 RMK AO2 T02390165
KBMT 241635Z AUTO 20009KT 10SM SCT024 BKN036 OVC041 25/17 A3016 RMK AO2 T02480168
KBMT 241615Z AUTO 19009KT 10SM SCT022 BKN036 OVC042 23/17 A3017 RMK AO2 T02320167
KBMT 241555Z AUTO 19008KT 10SM BKN020 OVC028 23/17 A3016 RMK AO2 T02320170
KBMT 241535Z AUTO 17008KT 10SM OVC018 23/17 A3015 RMK AO2 T02310174
KBMT 241515Z AUTO 17011KT 10SM BKN016 22/17 A3015 RMK AO2 T02230172
KBMT 241455Z AUTO 16009KT 10SM SCT016 23/18 A3015 RMK AO2 T02280175
KBMT 241435Z AUTO 16010KT 10SM CLR 22/17 A3015 RMK AO2 T02160170
KBMT 241415Z AUTO 15007KT 10SM CLR 21/17 A3014 RMK AO2 T02050169
KBMT 241355Z AUTO 14006KT 10SM SCT027 19/17 A3014 RMK AO2 T01930165
KBMT 241335Z AUTO 14006KT 10SM OVC029 18/16 A3014 RMK AO2 T01760162
KBMT 241315Z AUTO 13004KT 5SM BR OVC027 17/16 A3014 RMK AO2 T01670157
KBMT 241255Z AUTO 00000KT 3SM BR OVC025 16/15 A3014 RMK AO2 T01550145
KBMT 241235Z AUTO 00000KT 3/4SM BR OVC023 15/14 A3014 RMK AO2 T01470137
KBMT 241215Z AUTO 00000KT 1 1/4SM BR OVC023 15/14 A3013 RMK AO2 T01450135
KBMT 241155Z AUTO 00000KT 1SM BR BKN023 14/12 A3013 RMK AO2 T01350124 10172 20135
KBMT 241135Z AUTO 11003KT 3SM BR CLR 15/14 A3012 RMK AO2 T01470137
KBMT 241115Z AUTO 00000KT 2SM BR SCT023 14/13 A3012 RMK AO2 T01380128
KBMT 241055Z AUTO 00000KT 1 1/2SM BR BKN023 15/14 A3012 RMK AO2 T01460135
KBMT 241035Z AUTO 00000KT 2 1/2SM BR CLR 15/14 A3012 RMK AO2 T01490136
KBMT 241015Z AUTO 00000KT 5SM BR CLR 15/14 A3012 RMK AO2 T01520137
KBMT 240955Z AUTO 00000KT 5SM BR CLR 16/14 A3012 RMK AO2 T01560140
KBMT 240935Z AUTO 12003KT 5SM BR CLR 16/14 A3012 RMK AO2 T01600141
KBMT 240915Z AUTO 12003KT 10SM CLR 16/14 A3012 RMK AO2 T01570139
KBMT 240855Z AUTO 11004KT 10SM CLR 16/14 A3012 RMK AO2 T01600140
KBMT 240835Z AUTO 12003KT 10SM CLR 16/14 A3013 RMK AO2 T01630140
KBMT 240815Z AUTO 13004KT 10SM CLR 17/14 A3012 RMK AO2 T01660142
KBMT 240755Z AUTO 13004KT 10SM SCT025 17/14 A3012 RMK AO2 T01700141
KBMT 240735Z AUTO 13005KT 10SM SCT027 17/14 A3012 RMK AO2 T01710141
KBMT 240715Z AUTO 13006KT 10SM SCT027 17/14 A3012 RMK AO2 T01700139
KBMT 240655Z AUTO 13005KT 10SM CLR 17/14 A3013 RMK AO2 T01700136
KBMT 240635Z AUTO 13004KT 10SM CLR 17/13 A3013 RMK AO2 T01690133
KBMT 240615Z AUTO 13005KT 10SM SCT029 17/13 A3014 RMK AO2 T01670130
KBMT 240555Z AUTO 13004KT 10SM BKN029 17/13 A3015 RMK AO2 T01700130 10205 20170 402500122
KBMT 240535Z AUTO 13004KT 10SM CLR 17/13 A3015 RMK AO2 T01700130
KBMT 240515Z AUTO 14004KT 10SM CLR 17/13 A3015 RMK AO2 T01700130
KBMT 240455Z AUTO 13005KT 10SM CLR 17/13 A3014 RMK AO2 T01700134
KBMT 240435Z AUTO 12006KT 10SM CLR 17/14 A3014 RMK AO2 T01720137
KBMT 240415Z AUTO 13005KT 10SM CLR 17/14 A3014 RMK AO2 T01720140
KBMT 240355Z AUTO 13005KT 10SM CLR 17/14 A3015 RMK AO2 T01720142
KBMT 240335Z AUTO 13005KT 10SM CLR 17/15 A3015 RMK AO2 T01730145
KBMT 240315Z AUTO 13004KT 10SM CLR 17/14 A3015 RMK AO2 T01740143
KBMT 240255Z AUTO 13005KT 10SM CLR 18/14 A3015 RMK AO2 T01750140
KBMT 240235Z AUTO 14004KT 10SM CLR 18/14 A3015 RMK AO2 T01770135
KBMT 240215Z AUTO 14005KT 10SM CLR 18/13 A3014 RMK AO2 T01800127
KBMT 240155Z AUTO 14005KT 10SM CLR 18/12 A3014 RMK AO2 T01830121
KBMT 240135Z AUTO 14005KT 10SM SCT080 19/12 A3014 RMK AO2 T01870121
KBMT 240115Z AUTO 15005KT 10SM OVC080 20/12 A3014 RMK AO2 T01950119
KBMT 240055Z AUTO 15005KT 10SM OVC080 20/12 A3015 RMK AO2 T01970117
KBMT 240035Z AUTO 16007KT 10SM OVC090 20/12 A3015 RMK AO2 T02000115
KBMT 240015Z AUTO 15006KT 10SM OVC090 20/12 A3014 RMK AO2 T02020116
KBMT 232355Z AUTO 14009KT 10SM OVC090 21/12 A3014 RMK AO2 T02050115 10250 20205
KBMT 232335Z AUTO 17008KT 10SM BKN090 BKN120 21/11 A3014 RMK AO2 T02060114
KBMT 232315Z AUTO 16009G15KT 10SM SCT090 BKN120 21/11 A3015 RMK AO2 T02130114
KBMT 232255Z AUTO 15010G15KT 10SM OVC090 21/11 A3014 RMK AO2 T02110111
KBMT 232235Z AUTO 16009G15KT 10SM BKN090 OVC110 22/12 A3014 RMK AO2 T02160115
KBMT 232215Z AUTO 15010G16KT 10SM SCT041 BKN100 22/11 A3013 RMK AO2 T02210110
KBMT 232155Z AUTO 15008KT 10SM SCT041 OVC100 22/11 A3013 RMK AO2 T02220113
KBMT 232135Z AUTO 14008G15KT 10SM OVC100 24/09 A3014 RMK AO2 T02350093
KBMT 232115Z AUTO 14009G16KT 10SM OVC090 23/08 A3013 RMK AO2 T02300075
KBMT 232055Z AUTO 14014G18KT 10SM OVC090 23/05 A3013 RMK AO2 T02340049
KBMT 232035Z AUTO 15012G20KT 10SM SCT090 24/06 A3014 RMK AO2 LTG DSNT N T02380058
KBMT 232015Z AUTO 17012G16KT 10SM CLR 24/09 A3015 RMK AO2 T02420089
KBMT 231955Z AUTO 16010G18KT 140V200 10SM SCT095 24/10 A3014 RMK AO2 T02420100
KBMT 231935Z AUTO 13010G16KT 10SM SCT095 25/10 A3015 RMK AO2 T02490103
KBMT 231915Z AUTO 13011G17KT 10SM SCT050 24/10 A3015 RMK AO2 T02440099
KBMT 231855Z AUTO 16010G14KT 10SM CLR 24/10 A3016 RMK AO2 T02380100
KBMT 231835Z AUTO 13011G17KT 10SM CLR 24/10 A3017 RMK AO2 T02400100
KBMT 231815Z AUTO 16012G15KT 10SM CLR 24/10 A3018 RMK AO2 T02400099
KBMT 231755Z AUTO 15010G16KT 110V170 10SM CLR 24/10 A3018 RMK AO2 T02410103 10241 20122
KBMT 231735Z AUTO 16007G16KT 10SM CLR 23/11 A3020 RMK AO2 T02330110
KBMT 231715Z AUTO 13011G16KT 10SM CLR 24/12 A3020 RMK AO2 LTG DSNT N T02360115
KBMT 231655Z AUTO 16010G20KT 10SM SCT031 23/11 A3020 RMK AO2 T02300111
KBMT 231635Z AUTO 14008KT 10SM SCT031 23/13 A3020 RMK AO2 LTG DSNT N T02280130
KBMT 231615Z AUTO 16008KT 10SM SCT029 22/13 A3021 RMK AO2 LTG DSNT N T02200134
KBMT 231555Z AUTO 14008KT 10SM CLR 21/14 A3022 RMK AO2 LTG DSNT N T02140137
KBMT 231535Z AUTO 15007KT 10SM CLR 21/14 A3022 RMK AO2 T02100142
KBMT 231515Z AUTO 15006KT 10SM CLR 20/14 A3021 RMK AO2 T02010144
KBMT 231455Z AUTO 15006KT 10SM CLR 20/15 A3020 RMK AO2 LTG DSNT N T01950150
KBMT 231435Z AUTO 14003KT 10SM CLR 19/15 A3020 RMK AO2 T01870154
KBMT 231415Z AUTO 12004KT 10SM CLR 18/16 A3018 RMK AO2 T01760158
KBMT 231355Z AUTO 11005KT 10SM CLR 17/15 A3018 RMK AO2 T01650154
KBMT 231335Z AUTO 10004KT 5SM BR CLR 16/15 A3017 RMK AO2 T01560147
KBMT 231315Z AUTO 00000KT 4SM BR CLR 13/12 A3017 RMK AO2 T01310122
KBMT 231255Z AUTO 00000KT 2SM BR CLR 13/12 A3016 RMK AO2 T01270118
KBMT 231235Z AUTO 00000KT 2 1/2SM BR CLR 13/12 A3015 RMK AO2 T01300120
KBMT 231215Z AUTO 12003KT 2SM BR CLR 13/12 A3014 RMK AO2 T01250116
KBMT 231155Z AUTO 12003KT 4SM BR CLR 13/12 A3014 RMK AO2 T01300121 10141 20127
KBMT 231135Z AUTO 11003KT 3SM BR CLR 13/12 A3013 RMK AO2 T01320124
KBMT 231115Z AUTO 00000KT 2 1/2SM BR CLR 13/12 A3013 RMK AO2 T01280119
KBMT 231055Z AUTO 00000KT 4SM BR CLR 13/12 A3012 RMK AO2 T01320123
KBMT 231035Z AUTO 14003KT 2 1/2SM BR CLR 13/12 A3011 RMK AO2 T01300121
KBMT 231015Z AUTO 00000KT 3SM BR CLR 13/12 A3011 RMK AO2 T01330124
KBMT 230955Z AUTO 00000KT 2SM BR CLR 13/12 A3010 RMK AO2 T01290120